Time;durP1;ratioP1;P1;durP2;ratioP2;P2;SDS_P1;SDS_P2;PMS_P1;PMS_P2;Temp;Humidity;BMP_temperature;BMP_pressure;BME280_temperature;BME280_humidity;BME280_pressure;Samples;Min_cycle;Max_cycle;Signal;HPM_P1;HPM_P2
2022/09/24 00:00:02;;;;;;;;;;;;;;;10.08;72.31;97806.53;5037421;28;19932;-54
2022/09/24 00:02:30;;;;;;;;;;;;;;;10.06;72.34;97798.66;5027105;28;19968;-58
2022/09/24 00:05:00;;;;;;;;;;;;;;;10.10;71.98;97809.72;5031713;28;20012;-54
2022/09/24 00:07:30;;;;;;;;;;;;;;;10.09;71.99;97806.22;5030171;28;20348;-57
2022/09/24 00:09:58;;;;;;;;;;;;;;;10.07;71.81;97803.00;5043717;28;19925;-54
2022/09/24 00:12:26;;;;;;;;;;;;;;;10.12;72.05;97802.88;5032178;28;20024;-54
2022/09/24 00:14:54;;;;;;;;;;;;;;;10.15;71.92;97796.03;5029914;28;20362;-54
2022/09/24 00:17:22;;;;;;;;;;;;;;;10.16;71.81;97803.03;5026365;28;19925;-55
2022/09/24 00:19:50;;;;;;;;;;;;;;;10.14;71.93;97799.84;5031063;28;19971;-54
2022/09/24 00:22:18;;;;;;;;;;;;;;;10.09;71.89;97792.63;5037968;28;20382;-54
2022/09/24 00:27:34;;;;;;;;;;;;;;;10.14;71.85;97789.00;5039990;28;19960;-54
2022/09/24 00:30:02;;;;;;;;;;;;;;;10.09;71.86;97789.91;5036205;28;19929;-54
2022/09/24 00:32:30;;;;;;;;;;;;;;;10.11;71.88;97789.59;5037183;28;20440;-55
2022/09/24 00:34:58;;;;;;;;;;;;;;;10.16;71.49;97789.47;5034392;28;19932;-55
2022/09/24 00:37:27;;;;;;;;;;;;;;;10.13;71.85;97787.41;5031762;28;19987;-54
2022/09/24 00:39:57;;;;;;;;;;;;;;;10.12;71.67;97786.59;5029232;28;19925;-54
2022/09/24 00:42:25;;;;;;;;;;;;;;;10.10;71.69;97788.00;5032169;28;19925;-56
2022/09/24 00:44:56;;;;;;;;;;;;;;;10.07;71.90;97784.00;5031328;28;19971;-54
2022/09/24 00:47:39;;;;;;;;;;;;;;;10.07;72.11;97788.66;5031289;28;19929;-54
2022/09/24 00:50:13;;;;;;;;;;;;;;;10.04;71.80;97779.19;5031814;28;19929;-54
2022/09/24 00:52:43;;;;;;;;;;;;;;;10.07;71.86;97784.00;5031453;28;20294;-54
2022/09/24 00:55:12;;;;;;;;;;;;;;;10.01;72.22;97779.00;5025762;28;19925;-54
2022/09/24 00:57:40;;;;;;;;;;;;;;;10.02;72.22;97773.28;5032679;28;19992;-54
2022/09/24 01:00:08;;;;;;;;;;;;;;;10.08;71.84;97773.94;5031118;28;20497;-54
2022/09/24 01:03:01;;;;;;;;;;;;;;;10.11;71.52;97767.88;5027562;28;19976;-55
2022/09/24 01:05:29;;;;;;;;;;;;;;;9.93;72.13;97769.72;5022524;28;20365;-54
2022/09/24 01:07:57;;;;;;;;;;;;;;;9.93;72.09;97761.56;5030251;28;19929;-53
2022/09/24 01:13:19;;;;;;;;;;;;;;;9.96;71.63;97767.19;5027286;28;19925;-54
2022/09/24 01:15:48;;;;;;;;;;;;;;;10.01;71.79;97765.44;5027075;28;19933;-54
2022/09/24 01:18:17;;;;;;;;;;;;;;;10.03;71.80;97765.94;5030360;28;19970;-54
2022/09/24 01:20:53;;;;;;;;;;;;;;;9.96;71.83;97755.53;5032452;28;19979;-54
2022/09/24 01:23:29;;;;;;;;;;;;;;;9.97;71.50;97751.69;5040787;28;19925;-54
2022/09/24 01:26:06;;;;;;;;;;;;;;;9.94;72.01;97755.81;5034753;28;20381;-54
2022/09/24 01:28:36;;;;;;;;;;;;;;;9.88;71.93;97750.84;5036711;28;19947;-54
2022/09/24 01:31:07;;;;;;;;;;;;;;;9.83;72.04;97743.63;5040432;28;20437;-55
2022/09/24 01:33:35;;;;;;;;;;;;;;;9.86;71.93;97743.03;5034504;28;19948;-54
2022/09/24 01:36:07;;;;;;;;;;;;;;;9.82;72.18;97738.53;5040322;28;19968;-54
2022/09/24 01:38:37;;;;;;;;;;;;;;;9.86;71.82;97732.16;5027692;28;19925;-54
2022/09/24 01:41:06;;;;;;;;;;;;;;;9.87;71.85;97731.06;5030111;28;19936;-54
2022/09/24 01:43:38;;;;;;;;;;;;;;;9.80;71.99;97719.84;5033728;28;20370;-54
2022/09/24 01:46:07;;;;;;;;;;;;;;;9.81;71.89;97726.88;5033432;28;19929;-55
2022/09/24 01:48:36;;;;;;;;;;;;;;;9.74;72.19;97725.69;5034480;28;20333;-57
2022/09/24 01:51:06;;;;;;;;;;;;;;;9.72;72.26;97720.59;5028101;28;20302;-54
2022/09/24 01:53:34;;;;;;;;;;;;;;;9.70;72.32;97709.25;5031614;28;19929;-54
2022/09/24 01:56:04;;;;;;;;;;;;;;;9.62;72.90;97696.44;5033674;28;19925;-54
2022/09/24 01:58:33;;;;;;;;;;;;;;;9.67;72.38;97680.03;5029246;28;20307;-54
2022/09/24 02:01:03;;;;;;;;;;;;;;;9.55;72.98;97686.03;5030139;28;19932;-54
2022/09/24 02:03:42;;;;;;;;;;;;;;;9.59;72.66;97683.50;5030297;28;19955;-57
2022/09/24 02:06:10;;;;;;;;;;;;;;;9.54;73.21;97680.91;5032698;28;19925;-54
2022/09/24 02:08:40;;;;;;;;;;;;;;;9.56;73.11;97678.69;5033990;28;19975;-54
2022/09/24 02:11:10;;;;;;;;;;;;;;;9.45;73.52;97673.53;5034216;28;19925;-54
2022/09/24 02:13:39;;;;;;;;;;;;;;;9.55;73.26;97679.81;5037186;28;19929;-53
2022/09/24 02:16:07;;;;;;;;;;;;;;;9.48;73.07;97674.00;5032446;28;19925;-54
2022/09/24 02:18:36;;;;;;;;;;;;;;;9.54;72.93;97675.50;5035798;28;19929;-53
2022/09/24 02:21:05;;;;;;;;;;;;;;;9.48;73.49;97669.41;5035999;28;19929;-53
2022/09/24 02:23:34;;;;;;;;;;;;;;;9.45;73.57;97670.81;5034238;28;19929;-54
2022/09/24 02:26:02;;;;;;;;;;;;;;;9.41;73.63;97664.41;5034340;28;19925;-54
2022/09/24 02:28:29;;;;;;;;;;;;;;;9.41;73.51;97664.41;5033802;28;19960;-54
2022/09/24 02:30:59;;;;;;;;;;;;;;;9.46;73.28;97660.75;5034952;28;19929;-54
2022/09/24 02:36:13;;;;;;;;;;;;;;;9.37;73.73;97670.75;5028128;28;19925;-54
2022/09/24 02:38:45;;;;;;;;;;;;;;;9.42;73.59;97670.63;5041542;28;19925;-54
2022/09/24 02:41:12;;;;;;;;;;;;;;;9.41;73.46;97669.03;5036641;28;19991;-60
2022/09/24 02:43:40;;;;;;;;;;;;;;;9.36;73.83;97671.84;5031058;28;19932;-54
2022/09/24 02:46:09;;;;;;;;;;;;;;;9.29;74.08;97666.06;5032924;28;19925;-54
2022/09/24 02:48:37;;;;;;;;;;;;;;;9.28;74.23;97659.84;5031917;28;19932;-55
2022/09/24 02:51:05;;;;;;;;;;;;;;;9.11;74.96;97654.31;5032480;28;20348;-54
2022/09/24 02:53:34;;;;;;;;;;;;;;;9.21;74.60;97651.34;5031847;28;20383;-55
2022/09/24 02:56:02;;;;;;;;;;;;;;;9.14;74.67;97650.97;5032748;28;19925;-54
2022/09/24 02:58:30;;;;;;;;;;;;;;;9.15;74.66;97660.72;5038189;28;19925;-54
2022/09/24 03:00:59;;;;;;;;;;;;;;;9.10;75.19;97653.50;5030925;28;19956;-55
2022/09/24 03:03:27;;;;;;;;;;;;;;;9.22;74.78;97647.53;5032373;28;19936;-54
2022/09/24 03:05:55;;;;;;;;;;;;;;;9.21;74.92;97662.19;5033328;28;19925;-56
2022/09/24 03:08:23;;;;;;;;;;;;;;;9.07;75.56;97647.91;5031609;28;19932;-54
2022/09/24 03:10:52;;;;;;;;;;;;;;;8.96;76.46;97649.25;5032356;28;20401;-54
2022/09/24 03:13:21;;;;;;;;;;;;;;;9.06;75.88;97647.09;5034471;28;19952;-53
2022/09/24 03:15:48;;;;;;;;;;;;;;;9.08;75.62;97654.94;5039202;28;20259;-55
2022/09/24 03:18:16;;;;;;;;;;;;;;;9.14;75.42;97653.69;5030025;28;19952;-56
2022/09/24 03:20:53;;;;;;;;;;;;;;;9.18;75.21;97655.47;5037668;28;19929;-57
2022/09/24 03:23:21;;;;;;;;;;;;;;;9.24;74.80;97658.88;5028879;28;19932;-54
2022/09/24 03:25:49;;;;;;;;;;;;;;;9.24;74.82;97652.66;5031561;28;20011;-55
2022/09/24 03:28:18;;;;;;;;;;;;;;;9.21;75.04;97643.19;5033776;28;19925;-54
2022/09/24 03:31:00;;;;;;;;;;;;;;;9.22;74.86;97647.53;5027525;28;20340;-55
2022/09/24 03:33:29;;;;;;;;;;;;;;;9.15;75.29;97644.44;5029408;28;20143;-54
2022/09/24 03:35:57;;;;;;;;;;;;;;;9.18;75.08;97650.06;5035008;28;20392;-53
2022/09/24 03:38:24;;;;;;;;;;;;;;;9.16;75.18;97646.88;5035165;28;19932;-55
2022/09/24 03:40:52;;;;;;;;;;;;;;;9.15;75.25;97644.44;5033009;28;19929;-54
2022/09/24 03:43:21;;;;;;;;;;;;;;;9.18;75.05;97641.13;5041430;28;19924;-54
2022/09/24 03:45:49;;;;;;;;;;;;;;;9.22;75.20;97650.25;5037780;28;19929;-54
2022/09/24 03:48:17;;;;;;;;;;;;;;;9.21;74.97;97651.34;5030526;28;19925;-54
2022/09/24 03:50:47;;;;;;;;;;;;;;;9.22;75.07;97650.25;5040835;28;19931;-54
2022/09/24 03:53:39;;;;;;;;;;;;;;;9.16;75.92;97648.75;5030339;28;19934;-55
2022/09/24 03:56:07;;;;;;;;;;;;;;;9.01;76.04;97638.31;5032388;28;20274;-55
2022/09/24 03:58:37;;;;;;;;;;;;;;;9.07;75.86;97642.50;5025484;28;19932;-54
2022/09/24 04:01:05;;;;;;;;;;;;;;;9.10;75.72;97636.44;5024662;28;20361;-54
2022/09/24 04:03:35;;;;;;;;;;;;;;;9.09;75.97;97637.53;5028703;28;19933;-54
2022/09/24 04:06:04;;;;;;;;;;;;;;;9.08;75.99;97638.66;5024247;28;19929;-54
2022/09/24 04:11:26;;;;;;;;;;;;;;;9.13;75.86;97641.25;5022343;28;20281;-55
2022/09/24 04:13:57;;;;;;;;;;;;;;;9.13;75.92;97641.25;5030199;28;20369;-58
2022/09/24 04:16:25;;;;;;;;;;;;;;;9.13;75.83;97641.25;5028087;28;20294;-54
2022/09/24 04:18:54;;;;;;;;;;;;;;;9.11;75.77;97643.47;5028183;28;19925;-55
2022/09/24 04:21:21;;;;;;;;;;;;;;;9.16;75.17;97640.63;5024703;28;19925;-54
2022/09/24 04:23:57;;;;;;;;;;;;;;;9.18;75.21;97641.13;5028067;28;19925;-54
2022/09/24 04:26:25;;;;;;;;;;;;;;;9.15;75.49;97644.44;5021657;28;20408;-54
2022/09/24 04:28:53;;;;;;;;;;;;;;;9.15;75.35;97639.81;5032841;28;19928;-54
2022/09/24 04:31:22;;;;;;;;;;;;;;;9.07;75.77;97637.06;5034423;28;19926;-54
2022/09/24 04:33:50;;;;;;;;;;;;;;;9.02;75.97;97634.47;5029175;28;20381;-54
2022/09/24 04:36:17;;;;;;;;;;;;;;;9.04;75.72;97633.03;5024265;28;19925;-53
2022/09/24 04:38:46;;;;;;;;;;;;;;;8.84;76.85;97630.81;5024871;28;19929;-56
2022/09/24 04:41:15;;;;;;;;;;;;;;;8.97;75.97;97618.34;5025246;28;19925;-53
2022/09/24 04:43:45;;;;;;;;;;;;;;;8.98;75.94;97628.06;5028204;28;19933;-54
2022/09/24 04:46:13;;;;;;;;;;;;;;;9.00;75.79;97631.25;5028441;28;19925;-55
2022/09/24 04:48:42;;;;;;;;;;;;;;;8.86;76.49;97631.31;5031391;28;19925;-54
2022/09/24 04:51:11;;;;;;;;;;;;;;;8.93;76.09;97621.66;5031304;28;19932;-55
2022/09/24 04:53:39;;;;;;;;;;;;;;;8.96;75.72;97628.38;5030741;28;19945;-53
2022/09/24 04:56:10;;;;;;;;;;;;;;;8.96;75.70;97619.47;5027336;28;19929;-54
2022/09/24 04:58:38;;;;;;;;;;;;;;;8.92;75.78;97614.63;5030208;28;20293;-54
2022/09/24 05:01:06;;;;;;;;;;;;;;;8.85;76.12;97622.41;5026538;28;20827;-54
2022/09/24 05:03:34;;;;;;;;;;;;;;;8.89;75.75;97617.97;5029751;28;19933;-54
2022/09/24 05:06:03;;;;;;;;;;;;;;;8.88;75.92;97627.19;5026059;28;19926;-54
2022/09/24 05:08:31;;;;;;;;;;;;;;;8.88;76.10;97629.09;5028700;28;19933;-54
2022/09/24 05:11:23;;;;;;;;;;;;;;;8.90;75.94;97632.31;5020577;28;20287;-55
2022/09/24 05:13:53;;;;;;;;;;;;;;;8.92;75.97;97636.31;5026464;28;20134;-57
2022/09/24 05:16:21;;;;;;;;;;;;;;;8.95;76.15;97628.66;5034690;28;19933;-54
2022/09/24 05:18:49;;;;;;;;;;;;;;;8.90;76.03;97622.28;5022115;28;19936;-53
2022/09/24 05:21:21;;;;;;;;;;;;;;;8.79;76.58;97620.09;5023924;28;19933;-56
2022/09/24 05:23:48;;;;;;;;;;;;;;;8.76;76.77;97626.94;5025409;28;19933;-54
2022/09/24 05:29:01;;;;;;;;;;;;;;;8.79;76.48;97626.34;5028962;28;19925;-54
2022/09/24 05:31:29;;;;;;;;;;;;;;;8.76;76.63;97615.31;5032324;28;20313;-54
2022/09/24 05:33:57;;;;;;;;;;;;;;;8.80;76.54;97617.09;5024132;28;19925;-54
2022/09/24 05:36:26;;;;;;;;;;;;;;;8.82;76.17;97623.00;5030771;28;19963;-54
2022/09/24 05:38:54;;;;;;;;;;;;;;;8.88;76.27;97626.38;5030796;28;19929;-54
2022/09/24 05:41:49;;;;;;;;;;;;;;;8.91;76.16;97625.78;5026197;28;19929;-54
2022/09/24 05:44:20;;;;;;;;;;;;;;;8.97;75.95;97623.75;5029621;28;20282;-54
2022/09/24 05:49:39;;;;;;;;;;;;;;;9.09;75.36;97632.13;5031167;28;19936;-55
2022/09/24 05:52:08;;;;;;;;;;;;;;;9.04;75.50;97627.63;5030501;28;19929;-53
2022/09/24 05:54:36;;;;;;;;;;;;;;;9.17;75.23;97634.91;5030341;28;19932;-54
2022/09/24 05:57:04;;;;;;;;;;;;;;;9.09;75.34;97627.50;5029408;28;19990;-54
2022/09/24 05:59:34;;;;;;;;;;;;;;;9.06;75.43;97628.13;5029506;28;19929;-54
2022/09/24 06:02:04;;;;;;;;;;;;;;;9.09;75.17;97622.09;5025656;28;19933;-53
2022/09/24 06:04:32;;;;;;;;;;;;;;;9.14;75.18;97629.28;5029165;28;20289;-54
2022/09/24 06:07:00;;;;;;;;;;;;;;;9.17;75.16;97621.34;5028676;28;19933;-54
2022/09/24 06:09:29;;;;;;;;;;;;;;;9.13;75.11;97625.00;5029687;28;20008;-54
2022/09/24 06:11:57;;;;;;;;;;;;;;;9.26;74.75;97618.69;5029768;28;19925;-53
2022/09/24 06:14:24;;;;;;;;;;;;;;;9.29;74.82;97622.69;5032540;28;19926;-54
2022/09/24 06:16:53;;;;;;;;;;;;;;;9.35;74.43;97626.88;5032803;28;20366;-53
2022/09/24 06:19:23;;;;;;;;;;;;;;;9.33;74.57;97624.50;5031387;28;20405;-54
2022/09/24 06:21:53;;;;;;;;;;;;;;;9.15;75.38;97633.59;5033557;28;20430;-53
2022/09/24 06:24:22;;;;;;;;;;;;;;;9.09;75.71;97629.41;5034385;28;20278;-54
2022/09/24 06:26:51;;;;;;;;;;;;;;;9.18;75.21;97631.09;5037930;28;19964;-54
2022/09/24 06:29:19;;;;;;;;;;;;;;;9.31;74.79;97639.44;5031702;28;19941;-56
2022/09/24 06:31:47;;;;;;;;;;;;;;;9.30;74.80;97637.84;5033928;28;20275;-54
2022/09/24 06:34:15;;;;;;;;;;;;;;;9.36;74.73;97631.97;5032757;28;20366;-55
2022/09/24 06:36:42;;;;;;;;;;;;;;;9.41;74.81;97637.28;5032998;28;19936;-54
2022/09/24 06:39:10;;;;;;;;;;;;;;;9.48;74.88;97638.75;5029762;28;19929;-55
2022/09/24 06:41:39;;;;;;;;;;;;;;;9.47;74.63;97648.78;5033229;28;19925;-57
2022/09/24 06:44:09;;;;;;;;;;;;;;;9.60;74.29;97639.78;5028527;28;20907;-54
2022/09/24 06:46:37;;;;;;;;;;;;;;;9.68;74.17;97641.72;5028414;28;20019;-54
2022/09/24 06:49:05;;;;;;;;;;;;;;;9.69;73.62;97650.66;5030034;28;19929;-56
2022/09/24 06:51:33;;;;;;;;;;;;;;;9.81;73.61;97653.63;5026634;28;19935;-55
2022/09/24 06:54:03;;;;;;;;;;;;;;;9.84;73.58;97654.88;5029735;28;19925;-53
2022/09/24 06:56:35;;;;;;;;;;;;;;;9.96;73.17;97652.41;5029434;28;20247;-54
2022/09/24 06:59:05;;;;;;;;;;;;;;;10.02;73.17;97651.16;5025574;28;19925;-57
2022/09/24 07:01:36;;;;;;;;;;;;;;;10.06;73.09;97652.09;5029844;28;19933;-54
2022/09/24 07:09:43;;;;;;;;;;;;;;;10.38;72.08;97652.88;5033203;28;20396;-53
2022/09/24 07:12:11;;;;;;;;;;;;;;;10.46;71.94;97649.38;5032862;28;19929;-56
2022/09/24 07:14:39;;;;;;;;;;;;;;;10.58;71.51;97643.31;5026421;28;19930;-54
2022/09/24 07:17:08;;;;;;;;;;;;;;;10.70;71.13;97649.72;5042637;28;20024;-55
2022/09/24 07:19:37;;;;;;;;;;;;;;;10.78;70.98;97648.16;5032301;28;19932;-53
2022/09/24 07:22:05;;;;;;;;;;;;;;;10.84;70.67;97646.06;5029098;28;19929;-55
2022/09/24 07:24:33;;;;;;;;;;;;;;;10.86;71.05;97650.06;5025653;28;20309;-53
2022/09/24 07:27:00;;;;;;;;;;;;;;;10.88;70.27;97638.88;5024299;28;20004;-53
2022/09/24 07:29:28;;;;;;;;;;;;;;;11.00;70.11;97647.19;5029833;28;20030;-54
2022/09/24 07:31:56;;;;;;;;;;;;;;;11.07;70.16;97650.22;5031616;28;19929;-53
2022/09/24 07:34:25;;;;;;;;;;;;;;;11.14;70.08;97647.84;5031206;28;19979;-53
2022/09/24 07:36:54;;;;;;;;;;;;;;;11.11;70.16;97647.66;5026379;28;20020;-53
2022/09/24 07:42:17;;;;;;;;;;;;;;;11.32;69.85;97654.03;5029880;28;19932;-57
2022/09/24 07:44:47;;;;;;;;;;;;;;;11.40;69.78;97650.53;5030605;28;19925;-56
2022/09/24 07:47:15;;;;;;;;;;;;;;;11.47;69.82;97661.72;5030137;28;19932;-54
2022/09/24 07:49:44;;;;;;;;;;;;;;;11.59;69.34;97657.50;5027982;28;19932;-52
2022/09/24 07:52:12;;;;;;;;;;;;;;;11.70;68.83;97659.56;5024343;28;19929;-58
2022/09/24 07:54:40;;;;;;;;;;;;;;;11.76;68.53;97660.19;5027322;28;19931;-53
2022/09/24 07:57:12;;;;;;;;;;;;;;;11.82;68.16;97658.91;5032021;28;20404;-53
2022/09/24 07:59:43;;;;;;;;;;;;;;;11.89;68.11;97656.50;5029635;28;19925;-53
2022/09/24 08:02:15;;;;;;;;;;;;;;;11.92;67.77;97661.28;5029553;28;20258;-56
2022/09/24 08:04:44;;;;;;;;;;;;;;;12.01;67.66;97653.88;5030769;28;20400;-53
2022/09/24 08:07:12;;;;;;;;;;;;;;;12.04;66.93;97658.69;5027808;28;19956;-53
2022/09/24 08:09:40;;;;;;;;;;;;;;;12.12;66.56;97665.22;5030043;28;19948;-54
2022/09/24 08:12:09;;;;;;;;;;;;;;;12.26;66.74;97659.56;5032036;28;19929;-53
2022/09/24 08:14:37;;;;;;;;;;;;;;;12.37;66.86;97668.94;5027014;28;20361;-53
2022/09/24 08:17:04;;;;;;;;;;;;;;;12.47;66.77;97665.84;5028800;28;20027;-53
2022/09/24 08:19:33;;;;;;;;;;;;;;;12.48;65.71;97664.72;5041746;28;19932;-57
2022/09/24 08:22:07;;;;;;;;;;;;;;;12.61;65.64;97664.78;5041828;28;19925;-53
2022/09/24 08:24:35;;;;;;;;;;;;;;;12.76;65.24;97665.00;5031132;28;19960;-54
2022/09/24 08:27:07;;;;;;;;;;;;;;;12.78;64.89;97665.50;5019644;28;19936;-53
2022/09/24 08:29:37;;;;;;;;;;;;;;;12.99;64.75;97664.69;5027141;28;20366;-54
2022/09/24 08:32:05;;;;;;;;;;;;;;;13.13;63.88;97664.44;5028865;28;19933;-53
2022/09/24 08:34:37;;;;;;;;;;;;;;;13.16;63.30;97667.28;5029951;28;19933;-53
2022/09/24 08:37:06;;;;;;;;;;;;;;;13.23;63.30;97666.78;5028041;28;19929;-55
2022/09/24 08:39:37;;;;;;;;;;;;;;;13.26;63.53;97657.91;5024706;28;19929;-54
2022/09/24 08:42:06;;;;;;;;;;;;;;;13.29;63.16;97655.31;5029618;28;19929;-54
2022/09/24 08:47:25;;;;;;;;;;;;;;;13.43;63.29;97663.22;5022806;28;20421;-55
2022/09/24 08:49:58;;;;;;;;;;;;;;;13.47;63.36;97666.84;5026620;28;19979;-56
2022/09/24 08:58:24;;;;;;;;;;;;;;;13.40;62.67;97663.09;5022545;28;19925;-61
2022/09/24 09:00:58;;;;;;;;;;;;;;;13.35;61.71;97661.38;5023533;28;20365;-55
2022/09/24 09:03:36;;;;;;;;;;;;;;;13.41;62.41;97662.75;5019700;28;19967;-55
2022/09/24 09:06:05;;;;;;;;;;;;;;;13.44;61.38;97664.81;5025676;28;19983;-54
2022/09/24 09:08:40;;;;;;;;;;;;;;;13.57;62.52;97674.63;5022335;28;19929;-53
2022/09/24 09:11:30;;;;;;;;;;;;;;;13.69;62.26;97670.34;5030214;28;19929;-54
2022/09/24 09:13:58;;;;;;;;;;;;;;;13.75;62.42;97669.00;5037519;28;20337;-54
2022/09/24 09:16:27;;;;;;;;;;;;;;;13.81;62.64;97662.19;5031837;28;19925;-53
2022/09/24 09:18:58;;;;;;;;;;;;;;;13.85;61.98;97671.31;5034643;28;20347;-54
2022/09/24 09:21:27;;;;;;;;;;;;;;;13.90;62.47;97671.06;5026635;28;19930;-53
2022/09/24 09:23:56;;;;;;;;;;;;;;;13.95;61.86;97667.31;5033596;28;19925;-53
2022/09/24 09:26:26;;;;;;;;;;;;;;;14.03;60.91;97674.63;5031537;28;19929;-54
2022/09/24 09:28:56;;;;;;;;;;;;;;;14.09;61.42;97679.53;5030333;28;19925;-54
2022/09/24 09:31:26;;;;;;;;;;;;;;;14.18;61.21;97675.91;5030582;28;19979;-54
2022/09/24 09:34:08;;;;;;;;;;;;;;;14.25;60.89;97687.06;5034846;28;19949;-57
2022/09/24 09:36:40;;;;;;;;;;;;;;;14.32;60.65;97682.63;5025690;28;19925;-54
2022/09/24 09:39:16;;;;;;;;;;;;;;;14.24;58.64;97682.75;5031129;28;20433;-53
2022/09/24 09:41:47;;;;;;;;;;;;;;;14.40;58.73;97678.19;5031072;28;19936;-55
2022/09/24 09:44:16;;;;;;;;;;;;;;;14.45;58.66;97679.91;5026808;28;20232;-55
2022/09/24 09:46:46;;;;;;;;;;;;;;;14.45;57.88;97685.38;5029931;28;19925;-54
2022/09/24 09:49:14;;;;;;;;;;;;;;;14.46;57.79;97682.28;5031538;28;20514;-59
2022/09/24 09:51:42;;;;;;;;;;;;;;;14.43;57.92;97682.97;5051029;28;19931;-55
2022/09/24 09:57:31;;;;;;;;;;;;;;;14.62;57.56;97685.94;4983392;28;19969;-82
2022/09/24 10:00:00;;;;;;;;;;;;;;;14.61;57.41;97691.78;4994844;28;20025;-84
2022/09/24 10:02:30;;;;;;;;;;;;;;;14.67;57.02;97685.72;4977376;28;19929;-81
2022/09/24 10:04:58;;;;;;;;;;;;;;;14.78;57.56;97682.53;4977477;28;19980;-79
2022/09/24 10:07:27;;;;;;;;;;;;;;;14.81;57.62;97677.16;4975481;28;19934;-84
2022/09/24 10:10:00;;;;;;;;;;;;;;;14.83;57.45;97680.34;4980479;28;19972;-84
2022/09/24 10:12:30;;;;;;;;;;;;;;;14.78;57.44;97677.06;4994673;28;19929;-82
2022/09/24 10:15:00;;;;;;;;;;;;;;;14.79;58.12;97670.44;4979411;28;19933;-83
2022/09/24 10:17:32;;;;;;;;;;;;;;;14.70;57.90;97669.75;4978961;28;19933;-84
2022/09/24 10:20:00;;;;;;;;;;;;;;;14.78;58.59;97671.59;4997246;28;19926;-84
2022/09/24 10:22:28;;;;;;;;;;;;;;;14.79;58.11;97670.44;4983850;28;19937;-83
2022/09/24 10:24:57;;;;;;;;;;;;;;;14.81;57.89;97665.44;4991173;28;19926;-82
2022/09/24 10:27:27;;;;;;;;;;;;;;;14.81;57.26;97670.91;5016222;28;19914;-83
2022/09/24 10:32:47;;;;;;;;;;;;;;;14.89;57.57;97662.56;4949571;28;19925;-83
2022/09/24 10:35:20;;;;;;;;;;;;;;;14.92;58.03;97667.34;4994952;28;19929;-83
2022/09/24 10:37:55;;;;;;;;;;;;;;;14.91;58.15;97670.41;4990888;28;19926;-83
2022/09/24 10:40:28;;;;;;;;;;;;;;;15.02;57.33;97670.72;4978790;28;19926;-83
2022/09/24 10:42:59;;;;;;;;;;;;;;;15.02;56.84;97670.72;4978574;28;20346;-82
2022/09/24 10:45:35;;;;;;;;;;;;;;;15.02;56.99;97654.31;4979215;28;20261;-84
2022/09/24 10:48:06;;;;;;;;;;;;;;;15.09;57.23;97660.78;4993159;28;19980;-83
2022/09/24 10:50:35;;;;;;;;;;;;;;;15.09;57.33;97666.28;4977167;28;19977;-83
2022/09/24 10:53:07;;;;;;;;;;;;;;;15.08;57.80;97656.47;4974455;28;19934;-83
2022/09/24 10:55:38;;;;;;;;;;;;;;;15.08;57.80;97664.69;4979370;28;19927;-84
2022/09/24 10:58:13;;;;;;;;;;;;;;;15.07;57.48;97663.06;4976874;28;19972;-84
2022/09/24 11:00:45;;;;;;;;;;;;;;;14.97;58.02;97668.22;4967640;28;19953;-83
2022/09/24 11:03:54;;;;;;;;;;;;;;;15.02;57.79;97670.72;4986410;28;20418;-83
2022/09/24 11:06:26;;;;;;;;;;;;;;;14.97;57.56;97662.75;4970448;28;19926;-84
2022/09/24 11:08:57;;;;;;;;;;;;;;;14.94;57.35;97669.72;4978798;28;19930;-82
2022/09/24 11:11:30;;;;;;;;;;;;;;;15.06;57.76;97660.69;4975763;28;20021;-84
2022/09/24 11:14:02;;;;;;;;;;;;;;;15.12;57.45;97660.09;4974502;28;20033;-84
2022/09/24 11:16:38;;;;;;;;;;;;;;;15.11;57.89;97668.66;4974296;28;20283;-84
2022/09/24 11:19:07;;;;;;;;;;;;;;;15.07;56.54;97660.31;4974781;28;19930;-84
2022/09/24 11:21:39;;;;;;;;;;;;;;;15.20;56.49;97666.56;4973753;28;19927;-83
2022/09/24 11:24:15;;;;;;;;;;;;;;;15.36;56.61;97663.91;4968155;28;19926;-84
2022/09/24 11:26:50;;;;;;;;;;;;;;;15.30;56.14;97659.81;4979958;28;19965;-82
2022/09/24 11:29:25;;;;;;;;;;;;;;;15.35;56.05;97656.84;4967263;28;19933;-84
2022/09/24 11:31:56;;;;;;;;;;;;;;;15.49;55.86;97659.16;4980163;28;19926;-83
2022/09/24 11:34:29;;;;;;;;;;;;;;;15.53;55.59;97658.09;4965913;28;19927;-84
2022/09/24 11:37:01;;;;;;;;;;;;;;;15.57;56.53;97650.78;4974943;28;19926;-81
2022/09/24 11:39:33;;;;;;;;;;;;;;;15.58;55.46;97657.06;4974623;28;19959;-82
2022/09/24 11:42:06;;;;;;;;;;;;;;;15.60;55.46;97652.03;4969283;28;19926;-82
2022/09/24 11:44:47;;;;;;;;;;;;;;;15.61;56.72;97651.69;4985109;28;19926;-83
2022/09/24 11:47:20;;;;;;;;;;;;;;;15.65;57.11;97652.59;4971146;28;19927;-83
2022/09/24 11:49:52;;;;;;;;;;;;;;;15.67;55.61;97650.31;4987057;28;19926;-83
2022/09/24 11:52:22;;;;;;;;;;;;;;;15.85;56.14;97647.25;4971489;28;19942;-82
2022/09/24 11:54:52;;;;;;;;;;;;;;;15.85;56.02;97650.78;4972970;28;19930;-84
2022/09/24 11:57:45;;;;;;;;;;;;;;;15.81;57.09;97644.41;4981921;28;20042;-83
2022/09/24 12:00:15;;;;;;;;;;;;;;;15.86;57.75;97638.66;4986597;28;20393;-83
2022/09/24 12:02:49;;;;;;;;;;;;;;;15.85;57.05;97645.28;4972265;28;20025;-83
2022/09/24 12:05:21;;;;;;;;;;;;;;;15.88;57.23;97647.34;4973840;28;19926;-84
2022/09/24 12:07:49;;;;;;;;;;;;;;;15.82;58.24;97647.94;4971974;28;19932;-83
2022/09/24 12:10:29;;;;;;;;;;;;;;;15.80;57.11;97645.56;4977338;28;20005;-84
2022/09/24 12:12:59;;;;;;;;;;;;;;;15.77;57.78;97642.75;4987335;28;20386;-84
2022/09/24 12:15:29;;;;;;;;;;;;;;;15.82;57.45;97637.78;4973807;28;20017;-84
2022/09/24 12:18:01;;;;;;;;;;;;;;;15.81;58.18;97635.38;4969777;28;19930;-83
2022/09/24 12:20:29;;;;;;;;;;;;;;;15.77;59.00;97640.78;4981145;28;19930;-84
2022/09/24 12:22:58;;;;;;;;;;;;;;;15.81;58.77;97640.88;4973417;28;19932;-83
2022/09/24 12:25:29;;;;;;;;;;;;;;;15.84;58.18;97634.69;4955989;28;19933;-85
2022/09/24 12:27:57;;;;;;;;;;;;;;;15.83;58.43;97641.31;4973195;28;20356;-83
2022/09/24 12:33:18;;;;;;;;;;;;;;;15.85;57.97;97637.06;4974216;28;19933;-83
2022/09/24 12:36:11;;;;;;;;;;;;;;;15.91;56.64;97637.59;4973187;28;19933;-84
2022/09/24 12:38:41;;;;;;;;;;;;;;;15.92;56.92;97640.00;4973900;28;19930;-84
2022/09/24 12:41:25;;;;;;;;;;;;;;;16.04;56.67;97633.66;4981068;28;19958;-84
2022/09/24 12:43:55;;;;;;;;;;;;;;;16.06;57.35;97636.81;4972893;28;19953;-84
2022/09/24 12:46:24;;;;;;;;;;;;;;;16.08;56.70;97631.78;4985147;28;19927;-82
2022/09/24 12:48:54;;;;;;;;;;;;;;;16.18;55.97;97633.19;4971212;28;19941;-83
2022/09/24 12:51:22;;;;;;;;;;;;;;;16.15;55.52;97626.47;4974682;28;19996;-84
2022/09/24 12:54:02;;;;;;;;;;;;;;;16.17;56.92;97637.88;4973553;28;19972;-84
2022/09/24 12:56:31;;;;;;;;;;;;;;;16.32;55.29;97636.28;4966476;28;19933;-85
2022/09/24 13:01:53;;;;;;;;;;;;;;;16.40;56.15;97635.28;4968664;28;20000;-85
2022/09/24 13:04:29;;;;;;;780.60;293.30;;;;;;;16.31;56.27;97623.72;4971788;28;20020;-79
2022/09/24 13:06:58;;;;;;;1906.00;595.20;;;;;;;16.30;56.29;97621.31;4969525;28;20511;-81
2022/09/24 13:09:33;;;;;;;1733.28;537.50;;;;;;;16.48;55.25;97622.56;4971293;28;20416;-80
2022/09/24 13:12:04;;;;;;;511.50;184.50;;;;;;;16.50;54.02;97618.28;4971756;28;20499;-82
2022/09/24 13:14:33;;;;;;;;;;;;;;;16.50;53.19;97622.97;4972361;28;20975;-83
2022/09/24 13:17:04;;;;;;;;;;;;;;;16.49;52.34;97613.97;4969840;28;19923;-82
2022/09/24 13:19:39;;;;;;;;;;;;;;;16.46;52.29;97619.38;4962464;28;19922;-84
2022/09/24 13:22:17;;;;;;;;;;;;;;;16.50;53.07;97612.00;4969496;28;19923;-83
2022/09/24 13:24:46;;;;;;;;;;;;;;;16.23;53.81;97611.78;4974748;28;19922;-83
2022/09/24 13:27:21;;;;;;;;;;;;;;;16.23;53.93;97608.25;4990706;28;19922;-82
2022/09/24 13:30:06;;;;;;;;;;;;;;;16.38;53.76;97603.91;4985421;28;20395;-81
2022/09/24 13:32:44;;;;;;;;;;;;;;;16.42;53.24;97604.78;4982628;28;19926;-83
2022/09/24 13:35:16;;;;;;;;;;;;;;;16.45;52.85;97607.59;4972730;28;19937;-83
2022/09/24 13:37:52;;;;;;;;;;;;;;;16.52;51.64;97608.94;4972495;28;19977;-83
2022/09/24 13:40:22;;;;;;;;;;;;;;;16.51;51.93;97608.09;4969591;28;19922;-84
2022/09/24 13:42:51;;;;;;;;;;;;;;;16.54;52.22;97601.91;4976162;28;19922;-83
2022/09/24 13:45:20;;;;;;;;;;;;;;;16.67;51.67;97605.31;4987891;28;19985;-84
2022/09/24 13:47:49;;;;;;;;;;;;;;;16.57;50.99;97603.16;4972209;28;19989;-83
2022/09/24 13:50:23;;;;;;;;;;;;;;;16.57;51.69;97612.19;4969613;28;19926;-84
2022/09/24 13:52:52;;;;;;;;;;;;;;;16.61;52.38;97606.75;4970976;28;19936;-83